sensor_id;sensor_type;location;lat;lon;timestamp;P1;durP1;ratioP1;P2;durP2;ratioP2
16977;SDS011;8605;52.548;4.918;2023-09-19T00:03:48;4.15;;;1.50;;
16977;SDS011;8605;52.548;4.918;2023-09-19T00:08:51;7.65;;;1.40;;
16977;SDS011;8605;52.548;4.918;2023-09-19T00:13:57;5.23;;;1.53;;
16977;SDS011;8605;52.548;4.918;2023-09-19T00:19:01;3.15;;;1.73;;
16977;SDS011;8605;52.548;4.918;2023-09-19T00:24:09;4.60;;;1.60;;
16977;SDS011;8605;52.548;4.918;2023-09-19T00:29:14;5.55;;;1.75;;
16977;SDS011;8605;52.548;4.918;2023-09-19T00:34:18;5.22;;;1.77;;
16977;SDS011;8605;52.548;4.918;2023-09-19T00:39:22;7.70;;;2.20;;
16977;SDS011;8605;52.548;4.918;2023-09-19T00:44:29;6.90;;;2.13;;
16977;SDS011;8605;52.548;4.918;2023-09-19T00:49:36;4.97;;;1.67;;
16977;SDS011;8605;52.548;4.918;2023-09-19T00:54:39;2.95;;;1.20;;
16977;SDS011;8605;52.548;4.918;2023-09-19T00:59:44;8.65;;;2.20;;
16977;SDS011;8605;52.548;4.918;2023-09-19T01:04:48;5.07;;;2.00;;
16977;SDS011;8605;52.548;4.918;2023-09-19T01:09:52;3.30;;;1.48;;
16977;SDS011;8605;52.548;4.918;2023-09-19T01:14:59;3.40;;;1.30;;
16977;SDS011;8605;52.548;4.918;2023-09-19T01:20:11;5.20;;;1.30;;
16977;SDS011;8605;52.548;4.918;2023-09-19T01:25:31;6.03;;;1.67;;
16977;SDS011;8605;52.548;4.918;2023-09-19T01:30:45;4.07;;;1.93;;
16977;SDS011;8605;52.548;4.918;2023-09-19T01:35:51;13.35;;;2.30;;
16977;SDS011;8605;52.548;4.918;2023-09-19T01:41:02;5.60;;;2.35;;
16977;SDS011;8605;52.548;4.918;2023-09-19T01:46:12;5.73;;;2.30;;
16977;SDS011;8605;52.548;4.918;2023-09-19T01:51:18;6.50;;;1.80;;
16977;SDS011;8605;52.548;4.918;2023-09-19T01:56:28;6.88;;;1.80;;
16977;SDS011;8605;52.548;4.918;2023-09-19T02:01:38;4.07;;;1.70;;
16977;SDS011;8605;52.548;4.918;2023-09-19T02:06:42;10.03;;;2.30;;
16977;SDS011;8605;52.548;4.918;2023-09-19T02:11:45;5.13;;;2.17;;
16977;SDS011;8605;52.548;4.918;2023-09-19T02:16:49;11.27;;;2.20;;
16977;SDS011;8605;52.548;4.918;2023-09-19T02:21:52;5.75;;;1.73;;
16977;SDS011;8605;52.548;4.918;2023-09-19T02:26:55;6.90;;;1.70;;
16977;SDS011;8605;52.548;4.918;2023-09-19T02:32:02;7.00;;;1.77;;
16977;SDS011;8605;52.548;4.918;2023-09-19T02:37:06;10.90;;;2.63;;
16977;SDS011;8605;52.548;4.918;2023-09-19T02:42:10;7.18;;;3.08;;
16977;SDS011;8605;52.548;4.918;2023-09-19T02:47:14;6.63;;;1.90;;
16977;SDS011;8605;52.548;4.918;2023-09-19T02:52:18;5.03;;;1.80;;
16977;SDS011;8605;52.548;4.918;2023-09-19T02:57:21;6.13;;;2.10;;
16977;SDS011;8605;52.548;4.918;2023-09-19T03:02:27;10.60;;;1.95;;
16977;SDS011;8605;52.548;4.918;2023-09-19T03:07:30;8.13;;;1.90;;
16977;SDS011;8605;52.548;4.918;2023-09-19T03:12:33;6.85;;;2.40;;
16977;SDS011;8605;52.548;4.918;2023-09-19T03:17:38;6.82;;;2.20;;
16977;SDS011;8605;52.548;4.918;2023-09-19T03:22:45;5.88;;;1.85;;
16977;SDS011;8605;52.548;4.918;2023-09-19T03:27:50;10.95;;;2.28;;
16977;SDS011;8605;52.548;4.918;2023-09-19T03:32:56;11.98;;;2.75;;
16977;SDS011;8605;52.548;4.918;2023-09-19T03:38:00;5.38;;;1.90;;
16977;SDS011;8605;52.548;4.918;2023-09-19T03:43:03;5.70;;;1.88;;
16977;SDS011;8605;52.548;4.918;2023-09-19T03:48:09;4.60;;;1.70;;
16977;SDS011;8605;52.548;4.918;2023-09-19T03:53:12;9.60;;;1.95;;
16977;SDS011;8605;52.548;4.918;2023-09-19T03:58:15;5.95;;;2.25;;
16977;SDS011;8605;52.548;4.918;2023-09-19T04:03:20;5.72;;;1.88;;
16977;SDS011;8605;52.548;4.918;2023-09-19T04:08:24;6.90;;;2.07;;
16977;SDS011;8605;52.548;4.918;2023-09-19T04:13:27;8.55;;;1.70;;
16977;SDS011;8605;52.548;4.918;2023-09-19T04:18:31;8.13;;;2.08;;
16977;SDS011;8605;52.548;4.918;2023-09-19T04:23:36;8.75;;;2.58;;
16977;SDS011;8605;52.548;4.918;2023-09-19T04:28:39;8.90;;;1.85;;
16977;SDS011;8605;52.548;4.918;2023-09-19T04:33:44;6.03;;;1.90;;
16977;SDS011;8605;52.548;4.918;2023-09-19T04:38:48;8.50;;;2.05;;
16977;SDS011;8605;52.548;4.918;2023-09-19T04:43:51;5.90;;;1.67;;
16977;SDS011;8605;52.548;4.918;2023-09-19T04:48:55;6.75;;;1.83;;
16977;SDS011;8605;52.548;4.918;2023-09-19T04:53:59;5.20;;;1.77;;
16977;SDS011;8605;52.548;4.918;2023-09-19T04:59:02;7.87;;;1.70;;
16977;SDS011;8605;52.548;4.918;2023-09-19T05:04:07;8.05;;;2.33;;
16977;SDS011;8605;52.548;4.918;2023-09-19T05:09:10;8.55;;;2.15;;
16977;SDS011;8605;52.548;4.918;2023-09-19T05:14:13;6.30;;;2.22;;
16977;SDS011;8605;52.548;4.918;2023-09-19T05:19:18;6.05;;;1.92;;
16977;SDS011;8605;52.548;4.918;2023-09-19T05:24:21;6.63;;;2.22;;
16977;SDS011;8605;52.548;4.918;2023-09-19T05:29:24;8.13;;;2.05;;
16977;SDS011;8605;52.548;4.918;2023-09-19T05:34:29;9.25;;;2.17;;
16977;SDS011;8605;52.548;4.918;2023-09-19T05:39:32;6.50;;;1.98;;
16977;SDS011;8605;52.548;4.918;2023-09-19T05:44:35;13.10;;;2.23;;
16977;SDS011;8605;52.548;4.918;2023-09-19T05:49:39;5.50;;;1.88;;
16977;SDS011;8605;52.548;4.918;2023-09-19T05:54:42;6.60;;;2.40;;
16977;SDS011;8605;52.548;4.918;2023-09-19T05:59:45;6.07;;;2.53;;
16977;SDS011;8605;52.548;4.918;2023-09-19T06:04:52;9.27;;;2.22;;
16977;SDS011;8605;52.548;4.918;2023-09-19T06:09:57;10.98;;;2.83;;
16977;SDS011;8605;52.548;4.918;2023-09-19T06:15:00;6.90;;;2.10;;
16977;SDS011;8605;52.548;4.918;2023-09-19T06:20:05;7.13;;;2.40;;
16977;SDS011;8605;52.548;4.918;2023-09-19T06:25:15;11.77;;;2.40;;
16977;SDS011;8605;52.548;4.918;2023-09-19T06:30:22;10.23;;;2.17;;
16977;SDS011;8605;52.548;4.918;2023-09-19T06:35:28;9.70;;;2.28;;
16977;SDS011;8605;52.548;4.918;2023-09-19T06:40:33;8.32;;;1.95;;
16977;SDS011;8605;52.548;4.918;2023-09-19T06:45:36;7.25;;;2.05;;
16977;SDS011;8605;52.548;4.918;2023-09-19T06:50:41;6.35;;;2.20;;
16977;SDS011;8605;52.548;4.918;2023-09-19T06:55:45;12.60;;;2.65;;
16977;SDS011;8605;52.548;4.918;2023-09-19T07:00:49;11.48;;;2.58;;
16977;SDS011;8605;52.548;4.918;2023-09-19T07:05:54;7.93;;;2.33;;
16977;SDS011;8605;52.548;4.918;2023-09-19T07:10:57;9.70;;;2.70;;
16977;SDS011;8605;52.548;4.918;2023-09-19T07:16:01;12.35;;;2.22;;
16977;SDS011;8605;52.548;4.918;2023-09-19T07:21:06;8.25;;;2.65;;
16977;SDS011;8605;52.548;4.918;2023-09-19T07:26:09;8.43;;;2.70;;
16977;SDS011;8605;52.548;4.918;2023-09-19T07:31:12;9.95;;;2.55;;
16977;SDS011;8605;52.548;4.918;2023-09-19T07:36:17;9.13;;;3.17;;
16977;SDS011;8605;52.548;4.918;2023-09-19T07:41:20;11.30;;;2.73;;
16977;SDS011;8605;52.548;4.918;2023-09-19T07:46:23;12.73;;;3.40;;
16977;SDS011;8605;52.548;4.918;2023-09-19T07:51:28;8.63;;;2.40;;
16977;SDS011;8605;52.548;4.918;2023-09-19T07:56:31;9.25;;;2.85;;
16977;SDS011;8605;52.548;4.918;2023-09-19T08:01:35;12.27;;;2.53;;
16977;SDS011;8605;52.548;4.918;2023-09-19T08:06:40;7.50;;;3.35;;
16977;SDS011;8605;52.548;4.918;2023-09-19T08:11:43;9.88;;;2.33;;
16977;SDS011;8605;52.548;4.918;2023-09-19T08:16:47;9.00;;;2.78;;
16977;SDS011;8605;52.548;4.918;2023-09-19T08:21:51;9.82;;;3.15;;
16977;SDS011;8605;52.548;4.918;2023-09-19T08:26:54;9.07;;;2.47;;
16977;SDS011;8605;52.548;4.918;2023-09-19T08:31:57;7.45;;;2.90;;
16977;SDS011;8605;52.548;4.918;2023-09-19T08:37:02;7.40;;;2.53;;
16977;SDS011;8605;52.548;4.918;2023-09-19T08:42:05;11.55;;;2.85;;
16977;SDS011;8605;52.548;4.918;2023-09-19T08:47:09;10.70;;;2.95;;
16977;SDS011;8605;52.548;4.918;2023-09-19T08:52:18;9.73;;;3.33;;
16977;SDS011;8605;52.548;4.918;2023-09-19T08:57:25;8.47;;;2.90;;
16977;SDS011;8605;52.548;4.918;2023-09-19T09:02:31;13.63;;;3.53;;
16977;SDS011;8605;52.548;4.918;2023-09-19T09:07:37;7.95;;;2.70;;
16977;SDS011;8605;52.548;4.918;2023-09-19T09:12:40;12.43;;;2.90;;
16977;SDS011;8605;52.548;4.918;2023-09-19T09:17:46;10.07;;;2.50;;
16977;SDS011;8605;52.548;4.918;2023-09-19T09:22:54;11.82;;;2.70;;
16977;SDS011;8605;52.548;4.918;2023-09-19T09:28:02;10.15;;;3.20;;
16977;SDS011;8605;52.548;4.918;2023-09-19T09:33:08;11.07;;;3.03;;
16977;SDS011;8605;52.548;4.918;2023-09-19T09:38:15;13.55;;;3.97;;
16977;SDS011;8605;52.548;4.918;2023-09-19T09:43:26;6.78;;;2.70;;
16977;SDS011;8605;52.548;4.918;2023-09-19T09:48:31;13.52;;;3.20;;
16977;SDS011;8605;52.548;4.918;2023-09-19T09:53:35;10.98;;;3.40;;
16977;SDS011;8605;52.548;4.918;2023-09-19T09:58:49;11.35;;;3.28;;
16977;SDS011;8605;52.548;4.918;2023-09-19T10:03:56;10.90;;;3.70;;
16977;SDS011;8605;52.548;4.918;2023-09-19T10:09:04;13.35;;;3.15;;
16977;SDS011;8605;52.548;4.918;2023-09-19T10:14:14;12.13;;;3.88;;
16977;SDS011;8605;52.548;4.918;2023-09-19T10:19:20;10.63;;;3.05;;
16977;SDS011;8605;52.548;4.918;2023-09-19T10:24:28;11.73;;;2.97;;
16977;SDS011;8605;52.548;4.918;2023-09-19T10:29:32;15.95;;;2.50;;
16977;SDS011;8605;52.548;4.918;2023-09-19T10:34:37;9.68;;;3.05;;
16977;SDS011;8605;52.548;4.918;2023-09-19T10:39:46;10.93;;;2.72;;
16977;SDS011;8605;52.548;4.918;2023-09-19T10:44:51;5.88;;;2.75;;
16977;SDS011;8605;52.548;4.918;2023-09-19T10:49:55;9.70;;;2.97;;
16977;SDS011;8605;52.548;4.918;2023-09-19T10:55:01;10.53;;;2.07;;
16977;SDS011;8605;52.548;4.918;2023-09-19T11:00:05;7.78;;;2.63;;
16977;SDS011;8605;52.548;4.918;2023-09-19T11:05:23;6.85;;;2.33;;
16977;SDS011;8605;52.548;4.918;2023-09-19T11:10:47;3.95;;;2.00;;
16977;SDS011;8605;52.548;4.918;2023-09-19T11:16:03;9.87;;;2.53;;
16977;SDS011;8605;52.548;4.918;2023-09-19T11:26:45;9.82;;;2.13;;
16977;SDS011;8605;52.548;4.918;2023-09-19T11:31:50;8.37;;;2.93;;
16977;SDS011;8605;52.548;4.918;2023-09-19T11:37:01;9.93;;;2.72;;
16977;SDS011;8605;52.548;4.918;2023-09-19T11:42:19;5.73;;;2.10;;
16977;SDS011;8605;52.548;4.918;2023-09-19T11:47:46;12.05;;;2.70;;
16977;SDS011;8605;52.548;4.918;2023-09-19T11:52:49;5.78;;;2.13;;
16977;SDS011;8605;52.548;4.918;2023-09-19T11:57:56;9.37;;;2.40;;
16977;SDS011;8605;52.548;4.918;2023-09-19T12:02:59;12.27;;;2.80;;
16977;SDS011;8605;52.548;4.918;2023-09-19T12:08:08;7.43;;;1.95;;
16977;SDS011;8605;52.548;4.918;2023-09-19T12:13:16;5.28;;;1.80;;
16977;SDS011;8605;52.548;4.918;2023-09-19T12:18:26;4.45;;;2.13;;
16977;SDS011;8605;52.548;4.918;2023-09-19T12:23:30;5.70;;;2.00;;
16977;SDS011;8605;52.548;4.918;2023-09-19T12:28:37;7.65;;;1.65;;
16977;SDS011;8605;52.548;4.918;2023-09-19T12:33:44;5.83;;;2.27;;
16977;SDS011;8605;52.548;4.918;2023-09-19T12:38:47;7.10;;;1.60;;
16977;SDS011;8605;52.548;4.918;2023-09-19T12:43:52;8.25;;;1.90;;
16977;SDS011;8605;52.548;4.918;2023-09-19T12:49:15;5.15;;;1.98;;
16977;SDS011;8605;52.548;4.918;2023-09-19T12:54:19;8.70;;;1.60;;
16977;SDS011;8605;52.548;4.918;2023-09-19T12:59:29;7.65;;;2.10;;
16977;SDS011;8605;52.548;4.918;2023-09-19T13:04:34;7.87;;;1.87;;
16977;SDS011;8605;52.548;4.918;2023-09-19T13:10:01;5.20;;;2.30;;
16977;SDS011;8605;52.548;4.918;2023-09-19T13:15:10;7.20;;;2.25;;
16977;SDS011;8605;52.548;4.918;2023-09-19T13:20:22;15.02;;;2.80;;
16977;SDS011;8605;52.548;4.918;2023-09-19T13:25:30;9.67;;;3.10;;
16977;SDS011;8605;52.548;4.918;2023-09-19T13:30:37;6.07;;;2.30;;
16977;SDS011;8605;52.548;4.918;2023-09-19T13:35:44;9.68;;;2.95;;
16977;SDS011;8605;52.548;4.918;2023-09-19T13:40:46;13.05;;;3.55;;
16977;SDS011;8605;52.548;4.918;2023-09-19T13:45:52;11.70;;;2.75;;
16977;SDS011;8605;52.548;4.918;2023-09-19T13:50:55;6.90;;;2.17;;
16977;SDS011;8605;52.548;4.918;2023-09-19T13:56:01;10.27;;;3.30;;
16977;SDS011;8605;52.548;4.918;2023-09-19T14:01:05;9.93;;;2.70;;
16977;SDS011;8605;52.548;4.918;2023-09-19T14:06:13;14.10;;;3.15;;
16977;SDS011;8605;52.548;4.918;2023-09-19T14:11:17;9.70;;;2.90;;
16977;SDS011;8605;52.548;4.918;2023-09-19T14:16:21;14.80;;;2.83;;
16977;SDS011;8605;52.548;4.918;2023-09-19T14:21:26;11.53;;;3.57;;
16977;SDS011;8605;52.548;4.918;2023-09-19T14:26:29;14.52;;;3.97;;
16977;SDS011;8605;52.548;4.918;2023-09-19T14:31:33;10.85;;;3.63;;
16977;SDS011;8605;52.548;4.918;2023-09-19T14:36:36;9.47;;;3.13;;
16977;SDS011;8605;52.548;4.918;2023-09-19T14:41:42;6.47;;;3.07;;
16977;SDS011;8605;52.548;4.918;2023-09-19T17:32:22;8.02;;;2.80;;
16977;SDS011;8605;52.548;4.918;2023-09-19T17:37:24;7.63;;;3.40;;
16977;SDS011;8605;52.548;4.918;2023-09-19T17:42:27;9.03;;;2.83;;
16977;SDS011;8605;52.548;4.918;2023-09-19T17:47:32;9.00;;;2.90;;
16977;SDS011;8605;52.548;4.918;2023-09-19T17:52:35;6.00;;;2.50;;
16977;SDS011;8605;52.548;4.918;2023-09-19T17:57:38;11.47;;;3.47;;
16977;SDS011;8605;52.548;4.918;2023-09-19T18:02:43;7.50;;;2.63;;
16977;SDS011;8605;52.548;4.918;2023-09-19T18:07:46;5.80;;;2.88;;
16977;SDS011;8605;52.548;4.918;2023-09-19T18:12:50;5.43;;;3.07;;
16977;SDS011;8605;52.548;4.918;2023-09-19T18:17:54;6.17;;;3.00;;
16977;SDS011;8605;52.548;4.918;2023-09-19T18:22:58;5.95;;;2.53;;
16977;SDS011;8605;52.548;4.918;2023-09-19T18:28:01;7.55;;;2.80;;
16977;SDS011;8605;52.548;4.918;2023-09-19T18:33:06;8.97;;;3.07;;
16977;SDS011;8605;52.548;4.918;2023-09-19T18:38:10;6.43;;;3.13;;
16977;SDS011;8605;52.548;4.918;2023-09-19T18:43:13;4.97;;;2.88;;
16977;SDS011;8605;52.548;4.918;2023-09-19T18:48:19;9.52;;;3.05;;
16977;SDS011;8605;52.548;4.918;2023-09-19T18:53:22;8.07;;;3.40;;
16977;SDS011;8605;52.548;4.918;2023-09-19T18:58:27;5.50;;;2.72;;
16977;SDS011;8605;52.548;4.918;2023-09-19T19:03:31;6.95;;;3.75;;
16977;SDS011;8605;52.548;4.918;2023-09-19T19:08:35;6.95;;;3.05;;
16977;SDS011;8605;52.548;4.918;2023-09-19T19:13:40;6.27;;;2.60;;
16977;SDS011;8605;52.548;4.918;2023-09-19T19:18:45;4.95;;;2.40;;
16977;SDS011;8605;52.548;4.918;2023-09-19T19:23:48;5.85;;;2.92;;
16977;SDS011;8605;52.548;4.918;2023-09-19T19:28:53;7.53;;;3.28;;
16977;SDS011;8605;52.548;4.918;2023-09-19T19:33:58;7.57;;;3.17;;
16977;SDS011;8605;52.548;4.918;2023-09-19T19:39:02;8.98;;;4.00;;
16977;SDS011;8605;52.548;4.918;2023-09-19T19:44:06;12.38;;;3.85;;
16977;SDS011;8605;52.548;4.918;2023-09-19T19:49:11;9.90;;;3.80;;
16977;SDS011;8605;52.548;4.918;2023-09-19T19:54:14;9.30;;;3.83;;
16977;SDS011;8605;52.548;4.918;2023-09-19T19:59:17;8.55;;;3.75;;
16977;SDS011;8605;52.548;4.918;2023-09-19T20:04:22;15.95;;;4.22;;
16977;SDS011;8605;52.548;4.918;2023-09-19T20:09:25;10.45;;;4.38;;
16977;SDS011;8605;52.548;4.918;2023-09-19T20:14:28;5.70;;;3.50;;
16977;SDS011;8605;52.548;4.918;2023-09-19T20:19:32;9.30;;;3.73;;
16977;SDS011;8605;52.548;4.918;2023-09-19T20:24:35;10.73;;;4.05;;
16977;SDS011;8605;52.548;4.918;2023-09-19T20:29:39;8.23;;;4.25;;
16977;SDS011;8605;52.548;4.918;2023-09-19T20:34:44;6.97;;;3.87;;
16977;SDS011;8605;52.548;4.918;2023-09-19T20:39:49;9.57;;;4.40;;
16977;SDS011;8605;52.548;4.918;2023-09-19T20:44:51;13.37;;;4.30;;
16977;SDS011;8605;52.548;4.918;2023-09-19T20:49:58;12.77;;;3.27;;
16977;SDS011;8605;52.548;4.918;2023-09-19T20:55:01;9.45;;;3.90;;
16977;SDS011;8605;52.548;4.918;2023-09-19T21:00:05;16.47;;;5.00;;
16977;SDS011;8605;52.548;4.918;2023-09-19T21:05:11;7.20;;;3.77;;
16977;SDS011;8605;52.548;4.918;2023-09-19T21:10:14;9.35;;;4.18;;
16977;SDS011;8605;52.548;4.918;2023-09-19T21:15:17;8.63;;;4.35;;
16977;SDS011;8605;52.548;4.918;2023-09-19T21:20:22;9.35;;;3.90;;
16977;SDS011;8605;52.548;4.918;2023-09-19T21:25:27;8.10;;;3.25;;
16977;SDS011;8605;52.548;4.918;2023-09-19T21:30:30;7.47;;;3.40;;
16977;SDS011;8605;52.548;4.918;2023-09-19T21:35:37;9.38;;;3.72;;
16977;SDS011;8605;52.548;4.918;2023-09-19T21:40:46;10.10;;;3.33;;
16977;SDS011;8605;52.548;4.918;2023-09-19T21:45:49;9.55;;;3.58;;
16977;SDS011;8605;52.548;4.918;2023-09-19T21:50:54;11.10;;;3.40;;
16977;SDS011;8605;52.548;4.918;2023-09-19T21:55:58;9.20;;;4.00;;
16977;SDS011;8605;52.548;4.918;2023-09-19T22:01:03;8.30;;;3.93;;
16977;SDS011;8605;52.548;4.918;2023-09-19T22:06:10;8.80;;;3.90;;
16977;SDS011;8605;52.548;4.918;2023-09-19T22:11:15;10.27;;;3.67;;
16977;SDS011;8605;52.548;4.918;2023-09-19T22:16:19;9.63;;;3.88;;
16977;SDS011;8605;52.548;4.918;2023-09-19T22:21:24;10.00;;;3.90;;
16977;SDS011;8605;52.548;4.918;2023-09-19T22:26:33;9.70;;;4.10;;
16977;SDS011;8605;52.548;4.918;2023-09-19T22:31:40;8.75;;;3.72;;
16977;SDS011;8605;52.548;4.918;2023-09-19T22:36:45;4.47;;;2.60;;
16977;SDS011;8605;52.548;4.918;2023-09-19T22:41:50;8.60;;;3.15;;
16977;SDS011;8605;52.548;4.918;2023-09-19T22:47:18;9.90;;;3.83;;
16977;SDS011;8605;52.548;4.918;2023-09-19T22:52:23;8.07;;;3.58;;
16977;SDS011;8605;52.548;4.918;2023-09-19T22:57:30;6.90;;;2.95;;
16977;SDS011;8605;52.548;4.918;2023-09-19T23:02:34;7.47;;;3.90;;
16977;SDS011;8605;52.548;4.918;2023-09-19T23:07:41;9.20;;;4.00;;
16977;SDS011;8605;52.548;4.918;2023-09-19T23:12:48;12.57;;;4.15;;
16977;SDS011;8605;52.548;4.918;2023-09-19T23:17:51;11.33;;;4.67;;
16977;SDS011;8605;52.548;4.918;2023-09-19T23:22:55;9.80;;;4.17;;
16977;SDS011;8605;52.548;4.918;2023-09-19T23:28:02;8.02;;;3.40;;
16977;SDS011;8605;52.548;4.918;2023-09-19T23:33:06;8.15;;;3.78;;
16977;SDS011;8605;52.548;4.918;2023-09-19T23:38:11;12.75;;;4.50;;
16977;SDS011;8605;52.548;4.918;2023-09-19T23:43:14;9.13;;;3.70;;
16977;SDS011;8605;52.548;4.918;2023-09-19T23:48:19;13.05;;;4.90;;
16977;SDS011;8605;52.548;4.918;2023-09-19T23:53:24;8.68;;;3.92;;
16977;SDS011;8605;52.548;4.918;2023-09-19T23:58:27;17.58;;;4.50;;
